Time;durP1;ratioP1;P1;durP2;ratioP2;P2;SDS_P1;SDS_P2;PMS_P1;PMS_P2;Temp;Humidity;BMP_temperature;BMP_pressure;BME280_temperature;BME280_humidity;BME280_pressure;Samples;Min_cycle;Max_cycle;Signal;HPM_P1;HPM_P2
2024/01/15 00:01:01;;;;;;;20.33;7.72;;;-0.20;96.00;;;;;;5021819;28;20030;-71
2024/01/15 00:03:29;;;;;;;21.65;8.45;;;-0.20;96.00;;;;;;5021976;28;20108;-73
2024/01/15 00:05:55;;;;;;;19.83;8.38;;;-0.30;96.10;;;;;;5039275;28;20331;-73
2024/01/15 00:08:21;;;;;;;18.38;7.75;;;-0.30;96.20;;;;;;5041942;28;20029;-72
2024/01/15 00:10:46;;;;;;;21.35;8.13;;;-0.40;96.30;;;;;;5041709;28;20320;-73
2024/01/15 00:13:12;;;;;;;22.25;8.23;;;-0.50;96.50;;;;;;5041513;28;20043;-72
2024/01/15 00:15:38;;;;;;;22.92;8.05;;;-0.50;96.70;;;;;;5024551;28;20029;-74
2024/01/15 00:18:06;;;;;;;20.25;7.90;;;-0.60;96.70;;;;;;5023969;28;20075;-71
2024/01/15 00:20:35;;;;;;;21.15;8.60;;;-0.60;96.90;;;;;;5033985;28;20030;-72
2024/01/15 00:23:01;;;;;;;17.17;6.97;;;-0.70;97.10;;;;;;5027290;28;20021;-71
2024/01/15 00:25:29;;;;;;;19.98;8.35;;;-0.80;97.20;;;;;;5014044;28;20096;-73
2024/01/15 00:27:55;;;;;;;21.38;7.97;;;-0.80;97.30;;;;;;5024401;28;20018;-73
2024/01/15 00:30:24;;;;;;;20.30;9.07;;;-0.90;97.40;;;;;;5007651;28;20076;-72
2024/01/15 00:32:49;;;;;;;20.20;8.05;;;-1.00;97.60;;;;;;5024861;28;20077;-74
2024/01/15 00:35:15;;;;;;;21.90;8.43;;;-1.00;97.80;;;;;;5025714;28;20240;-73
2024/01/15 00:37:44;;;;;;;19.38;7.47;;;-1.10;98.00;;;;;;5028677;28;20334;-73
2024/01/15 00:40:10;;;;;;;21.25;8.93;;;-1.10;98.20;;;;;;5025338;28;20034;-72
2024/01/15 00:42:35;;;;;;;19.13;7.55;;;-1.10;98.10;;;;;;5025538;28;20022;-73
2024/01/15 00:45:01;;;;;;;20.58;8.35;;;-1.10;98.30;;;;;;5025264;28;20093;-72
2024/01/15 00:47:26;;;;;;;20.05;8.00;;;-1.10;98.40;;;;;;5024428;28;20030;-72
2024/01/15 00:49:55;;;;;;;21.17;8.10;;;-1.20;98.40;;;;;;5024867;28;20320;-70
2024/01/15 00:52:21;;;;;;;23.83;8.23;;;-1.10;98.50;;;;;;5025501;28;20260;-74
2024/01/15 00:54:55;;;;;;;20.63;7.95;;;-1.20;98.50;;;;;;5025476;28;20025;-73
2024/01/15 00:57:27;;;;;;;21.42;9.70;;;-1.20;98.80;;;;;;5044884;28;20095;-73
2024/01/15 00:59:55;;;;;;;20.35;8.52;;;-1.20;98.70;;;;;;5044668;28;20174;-72
2024/01/15 01:02:27;;;;;;;20.33;7.85;;;-1.20;98.80;;;;;;5045062;28;20201;-73
2024/01/15 01:04:56;;;;;;;22.42;8.10;;;-1.10;98.90;;;;;;5026608;28;20214;-71
2024/01/15 01:07:27;;;;;;;21.40;8.48;;;-1.10;98.90;;;;;;5044680;28;20045;-72
2024/01/15 01:09:56;;;;;;;22.65;7.97;;;-0.90;98.70;;;;;;5044452;28;20029;-72
2024/01/15 01:12:24;;;;;;;19.13;7.63;;;-0.90;98.60;;;;;;5038599;28;20029;-72
2024/01/15 01:14:53;;;;;;;20.90;8.27;;;-0.90;98.70;;;;;;5043914;28;20039;-71
2024/01/15 01:17:19;;;;;;;18.50;7.63;;;-0.90;98.60;;;;;;5044432;28;20273;-73
2024/01/15 01:19:49;;;;;;;17.48;7.13;;;-0.80;98.70;;;;;;5044385;28;20025;-72
2024/01/15 01:22:14;;;;;;;19.08;7.10;;;-0.70;98.50;;;;;;5044307;28;20025;-71
2024/01/15 01:24:43;;;;;;;17.75;7.53;;;-0.70;98.30;;;;;;5024977;28;20072;-72
2024/01/15 01:27:12;;;;;;;18.55;7.80;;;-0.60;98.40;;;;;;5024098;28;20040;-73
2024/01/15 01:29:37;;;;;;;21.05;7.90;;;-0.60;98.40;;;;;;5028206;28;20034;-73
2024/01/15 01:32:06;;;;;;;19.17;7.20;;;-0.60;98.40;;;;;;5023909;28;20388;-73
2024/01/15 01:34:39;;;;;;;17.75;7.93;;;-0.60;98.40;;;;;;5024782;28;20087;-71
2024/01/15 01:37:05;;;;;;;20.08;7.78;;;-0.50;98.40;;;;;;5023017;28;20034;-71
2024/01/15 01:39:33;;;;;;;21.27;8.55;;;-0.50;98.40;;;;;;5024381;28;20061;-73
2024/01/15 01:42:08;;;;;;;18.70;7.07;;;-0.50;98.40;;;;;;5023928;28;20156;-73
2024/01/15 01:44:39;;;;;;;16.00;6.78;;;-0.40;98.20;;;;;;5024315;28;20045;-72
2024/01/15 01:47:05;;;;;;;17.42;7.10;;;-0.30;98.20;;;;;;5027477;28;20385;-73
2024/01/15 01:49:35;;;;;;;21.80;7.25;;;-0.30;98.20;;;;;;5006597;28;20065;-73
2024/01/15 01:52:07;;;;;;;17.45;6.40;;;-0.30;98.10;;;;;;5006385;28;20025;-72
2024/01/15 01:54:36;;;;;;;18.15;7.22;;;-0.20;98.00;;;;;;5022888;28;20049;-71
2024/01/15 01:57:03;;;;;;;19.15;6.95;;;-0.20;97.90;;;;;;5023649;28;20366;-73
2024/01/15 01:59:30;;;;;;;16.85;7.15;;;-0.20;97.90;;;;;;5022663;28;20038;-72
2024/01/15 02:01:56;;;;;;;18.25;6.78;;;-0.20;98.00;;;;;;5023563;28;20216;-73
2024/01/15 02:04:31;;;;;;;18.52;7.50;;;-0.20;98.10;;;;;;5027738;28;20267;-72
2024/01/15 02:07:04;;;;;;;19.60;7.13;;;-0.20;98.20;;;;;;5023613;28;20040;-72
2024/01/15 02:09:29;;;;;;;20.38;7.47;;;-0.20;98.20;;;;;;5023813;28;20383;-72
2024/01/15 02:11:58;;;;;;;18.75;7.03;;;-0.20;98.30;;;;;;5023210;28;20014;-71
2024/01/15 02:14:24;;;;;;;19.10;6.72;;;-0.20;98.20;;;;;;5023962;28;20037;-72
2024/01/15 02:16:52;;;;;;;19.95;7.47;;;-0.20;98.30;;;;;;5023603;28;20030;-71
2024/01/15 02:19:18;;;;;;;18.38;7.65;;;-0.30;98.40;;;;;;5023530;28;20045;-74
2024/01/15 02:21:44;;;;;;;16.30;7.20;;;-0.30;98.40;;;;;;5032384;28;20029;-74
2024/01/15 02:24:11;;;;;;;18.55;6.82;;;-0.30;98.40;;;;;;5027039;28;20079;-71
2024/01/15 02:26:42;;;;;;;18.92;7.20;;;-0.30;98.50;;;;;;5006254;28;20085;-72
2024/01/15 02:29:09;;;;;;;18.05;7.55;;;-0.30;98.60;;;;;;5023358;28;20030;-71
2024/01/15 02:31:36;;;;;;;18.45;7.47;;;-0.40;98.80;;;;;;5023791;28;20101;-74
2024/01/15 02:34:04;;;;;;;14.95;6.78;;;-0.50;98.80;;;;;;5023406;28;20018;-71
2024/01/15 02:36:33;;;;;;;17.10;7.38;;;-0.60;99.00;;;;;;5023271;28;20212;-71
2024/01/15 02:39:04;;;;;;;17.33;6.97;;;-0.60;99.20;;;;;;5026087;28;20053;-74
2024/01/15 02:41:30;;;;;;;19.95;7.43;;;-0.60;99.20;;;;;;5023518;28;20034;-73
2024/01/15 02:43:55;;;;;;;19.70;7.60;;;-0.60;99.40;;;;;;5022492;28;20347;-74
2024/01/15 02:46:24;;;;;;;20.77;7.38;;;-0.60;99.40;;;;;;5023827;28;20049;-74
2024/01/15 02:48:53;;;;;;;19.00;7.30;;;-0.70;99.40;;;;;;5022953;28;20049;-72
2024/01/15 02:51:19;;;;;;;17.30;6.95;;;-0.80;99.50;;;;;;5023281;28;20189;-72
2024/01/15 02:53:50;;;;;;;19.60;7.00;;;-0.80;99.60;;;;;;5023289;28;20078;-71
2024/01/15 02:56:16;;;;;;;16.35;6.97;;;-0.80;99.70;;;;;;5039300;28;20036;-73
2024/01/15 02:58:42;;;;;;;18.60;7.75;;;-0.80;99.70;;;;;;5043106;28;20045;-72
2024/01/15 03:01:13;;;;;;;22.75;7.38;;;-0.90;99.80;;;;;;5024564;28;20045;-72
2024/01/15 03:03:40;;;;;;;17.50;7.07;;;-1.00;99.90;;;;;;5043036;28;20029;-72
2024/01/15 03:06:06;;;;;;;19.58;7.28;;;-1.00;99.90;;;;;;5042143;28;20030;-72
2024/01/15 03:08:35;;;;;;;17.30;6.60;;;-1.00;99.90;;;;;;5042603;28;20087;-72
2024/01/15 03:11:00;;;;;;;19.77;7.82;;;-1.10;99.90;;;;;;5036262;28;20037;-72
2024/01/15 03:13:26;;;;;;;17.90;7.28;;;-1.00;99.90;;;;;;5042830;28;20033;-72
2024/01/15 03:15:52;;;;;;;18.90;7.28;;;-1.10;99.90;;;;;;5041232;28;20033;-72
2024/01/15 03:18:20;;;;;;;17.40;7.35;;;-1.10;99.90;;;;;;5041085;28;20033;-74
2024/01/15 03:20:49;;;;;;;18.42;7.38;;;-1.10;99.90;;;;;;5041466;28;20025;-74
2024/01/15 03:23:14;;;;;;;18.33;7.13;;;-1.20;99.90;;;;;;5033485;28;20026;-73
2024/01/15 03:25:40;;;;;;;18.90;8.57;;;-1.20;99.90;;;;;;5022604;28;20193;-72
2024/01/15 03:28:06;;;;;;;18.02;7.55;;;-1.20;99.90;;;;;;5034526;28;20033;-72
2024/01/15 03:30:34;;;;;;;20.17;7.88;;;-1.20;99.90;;;;;;5042681;28;20021;-73
2024/01/15 03:33:03;;;;;;;22.23;8.15;;;-1.20;99.90;;;;;;5041435;28;20327;-73
2024/01/15 03:35:30;;;;;;;17.63;7.03;;;-1.20;99.90;;;;;;5042376;28;20300;-74
2024/01/15 03:37:59;;;;;;;15.80;6.35;;;-1.10;99.90;;;;;;5024500;28;20320;-73
2024/01/15 03:40:24;;;;;;;19.77;7.82;;;-1.10;99.90;;;;;;5042139;28;20029;-74
2024/01/15 03:42:51;;;;;;;17.90;7.25;;;-1.10;99.90;;;;;;5040477;28;20033;-75
2024/01/15 03:45:19;;;;;;;17.35;7.50;;;-1.10;99.90;;;;;;5024237;28;20312;-76
2024/01/15 03:47:45;;;;;;;16.02;7.22;;;-1.00;99.90;;;;;;5022472;28;20035;-74
2024/01/15 03:50:14;;;;;;;18.73;7.45;;;-0.90;99.90;;;;;;5021765;28;20038;-74
2024/01/15 03:52:39;;;;;;;19.73;6.97;;;-0.90;99.90;;;;;;5022438;28;20097;-73
2024/01/15 03:55:08;;;;;;;17.17;6.63;;;-0.80;99.90;;;;;;5021924;28;20030;-73
2024/01/15 03:57:33;;;;;;;16.50;7.53;;;-0.70;99.90;;;;;;5021399;28;20030;-75
2024/01/15 03:59:59;;;;;;;17.23;6.75;;;-0.70;99.90;;;;;;5024617;28;20044;-76
2024/01/15 04:02:31;;;;;;;16.23;6.88;;;-0.70;99.90;;;;;;5027043;28;20075;-74
2024/01/15 04:04:56;;;;;;;16.75;6.78;;;-0.60;99.80;;;;;;5026006;28;20252;-71
2024/01/15 04:07:25;;;;;;;16.45;6.10;;;-0.60;99.80;;;;;;5026433;28;20026;-77
2024/01/15 04:09:50;;;;;;;17.60;6.75;;;-0.60;99.80;;;;;;5026190;28;20037;-72
2024/01/15 04:12:19;;;;;;;15.95;6.60;;;-0.60;99.80;;;;;;5025727;28;20029;-73
2024/01/15 04:14:44;;;;;;;18.67;7.05;;;-0.60;99.80;;;;;;5026133;28;20033;-73
2024/01/15 04:17:13;;;;;;;17.27;6.60;;;-0.50;99.70;;;;;;5029277;28;20022;-75
2024/01/15 04:19:39;;;;;;;15.05;6.15;;;-0.40;99.60;;;;;;5045389;28;20037;-73
2024/01/15 04:22:04;;;;;;;18.27;6.30;;;-0.40;99.60;;;;;;5027510;28;20327;-73
2024/01/15 04:24:32;;;;;;;15.85;6.72;;;-0.30;99.50;;;;;;5026763;28;20030;-74
2024/01/15 04:27:00;;;;;;;15.02;6.03;;;-0.30;99.30;;;;;;5025645;28;20042;-73
2024/01/15 04:29:32;;;;;;;14.40;5.97;;;-0.30;99.30;;;;;;5016647;28;20025;-72
2024/01/15 04:32:04;;;;;;;15.75;5.85;;;-0.20;99.30;;;;;;5025519;28;20025;-74
2024/01/15 04:34:32;;;;;;;13.82;5.53;;;-0.20;99.40;;;;;;5044754;28;20029;-72
2024/01/15 04:36:58;;;;;;;15.55;5.72;;;-0.20;99.20;;;;;;5044926;28;20136;-72
2024/01/15 04:39:24;;;;;;;13.70;5.40;;;-0.10;99.10;;;;;;5045116;28;20188;-75
2024/01/15 04:41:55;;;;;;;15.63;6.30;;;0.00;98.90;;;;;;5046904;28;20018;-73
2024/01/15 04:44:24;;;;;;;15.38;6.03;;;0.10;98.70;;;;;;5047094;28;20071;-74
2024/01/15 04:46:50;;;;;;;13.55;5.63;;;0.20;98.50;;;;;;5045137;28;20362;-72
2024/01/15 04:49:18;;;;;;;13.38;5.70;;;0.30;98.30;;;;;;5036836;28;20018;-76
2024/01/15 04:51:44;;;;;;;14.88;5.90;;;0.40;98.20;;;;;;5025589;28;20045;-74
2024/01/15 04:54:17;;;;;;;14.85;6.55;;;0.40;98.10;;;;;;5007763;28;20324;-75
2024/01/15 04:56:43;;;;;;;13.63;5.75;;;0.40;98.10;;;;;;5025185;28;20024;-73
2024/01/15 04:59:09;;;;;;;16.85;6.75;;;0.50;98.00;;;;;;5024678;28;20044;-76
2024/01/15 05:01:40;;;;;;;13.60;5.78;;;0.50;97.90;;;;;;5025156;28;20054;-75
2024/01/15 05:04:09;;;;;;;16.20;6.03;;;0.50;97.90;;;;;;5007467;28;20017;-74
2024/01/15 05:06:37;;;;;;;13.13;6.00;;;0.70;97.70;;;;;;5028254;28;20148;-75
2024/01/15 05:09:04;;;;;;;16.92;6.43;;;0.70;97.70;;;;;;5024739;28;20105;-73
2024/01/15 05:11:32;;;;;;;15.07;6.15;;;0.60;97.80;;;;;;5024874;28;20030;-72
2024/01/15 05:14:07;;;;;;;14.40;6.10;;;0.70;98.00;;;;;;5024128;28;20030;-74
2024/01/15 05:16:33;;;;;;;16.60;6.65;;;0.60;97.90;;;;;;5024915;28;20153;-73
2024/01/15 05:19:02;;;;;;;16.77;5.93;;;0.70;97.90;;;;;;5024417;28;20382;-72
2024/01/15 05:21:33;;;;;;;14.27;6.80;;;0.70;98.00;;;;;;5024933;28;20037;-73
2024/01/15 05:23:59;;;;;;;15.68;6.68;;;0.70;98.00;;;;;;5039007;28;20087;-74
2024/01/15 05:26:28;;;;;;;18.13;7.60;;;0.70;98.10;;;;;;5038530;28;20100;-73
2024/01/15 05:28:53;;;;;;;15.30;6.07;;;0.60;98.10;;;;;;5027061;28;20044;-73
2024/01/15 05:31:28;;;;;;;18.42;7.75;;;0.60;98.20;;;;;;5043002;28;20320;-72
2024/01/15 05:33:53;;;;;;;14.35;5.88;;;0.70;98.20;;;;;;5027186;28;20212;-73
2024/01/15 05:36:25;;;;;;;18.45;6.75;;;0.60;98.30;;;;;;5043825;28;20029;-71
2024/01/15 05:38:57;;;;;;;13.65;6.38;;;0.60;98.20;;;;;;5044349;28;20063;-73
2024/01/15 05:41:26;;;;;;;16.30;7.28;;;0.70;98.10;;;;;;5036928;28;20053;-74
2024/01/15 05:44:01;;;;;;;15.82;6.13;;;0.70;98.00;;;;;;5007029;28;20076;-76
2024/01/15 05:46:29;;;;;;;16.52;6.72;;;0.70;98.00;;;;;;5024383;28;20144;-76
2024/01/15 05:48:55;;;;;;;13.90;6.20;;;0.70;97.80;;;;;;5024552;28;20108;-73
2024/01/15 05:51:20;;;;;;;13.30;6.38;;;0.70;97.80;;;;;;5005521;28;20053;-78
2024/01/15 05:53:46;;;;;;;17.90;6.50;;;0.80;97.80;;;;;;5024260;28;20028;-76
2024/01/15 05:56:12;;;;;;;17.08;6.35;;;0.80;97.60;;;;;;5022848;28;20324;-75
2024/01/15 05:58:39;;;;;;;13.05;5.80;;;0.80;97.60;;;;;;5027804;28;20026;-77
2024/01/15 06:01:08;;;;;;;13.25;5.60;;;0.80;97.60;;;;;;5023824;28;20073;-72
2024/01/15 06:03:33;;;;;;;15.15;6.22;;;0.70;97.50;;;;;;5024224;28;20034;-74
2024/01/15 06:06:05;;;;;;;15.65;6.90;;;0.80;97.50;;;;;;5006304;28;20117;-76
2024/01/15 06:08:31;;;;;;;15.48;6.10;;;0.80;97.40;;;;;;5007127;28;20050;-78
2024/01/15 06:10:59;;;;;;;15.05;6.20;;;0.80;97.40;;;;;;5006916;28;20041;-77
2024/01/15 06:13:34;;;;;;;14.73;6.10;;;0.80;97.30;;;;;;5006464;28;20022;-76
2024/01/15 06:16:00;;;;;;;14.02;6.35;;;0.80;97.40;;;;;;4993569;28;20052;-78
2024/01/15 06:18:25;;;;;;;12.85;5.88;;;0.80;97.50;;;;;;5022503;28;20312;-76
2024/01/15 06:20:58;;;;;;;13.93;6.88;;;0.80;97.40;;;;;;5023595;28;20375;-73
2024/01/15 06:23:24;;;;;;;13.00;5.82;;;0.70;97.50;;;;;;5020447;28;20033;-76
2024/01/15 06:25:55;;;;;;;;;;;0.70;97.40;;;;;;5025467;28;20311;-75
2024/01/15 06:28:21;;;;;;;13.15;5.40;;;0.80;97.30;;;;;;5043079;28;19908;-75
2024/01/15 06:31:03;;;;;;;15.23;6.30;;;0.70;97.30;;;;;;5042980;28;20096;-77
2024/01/15 06:33:31;;;;;;;15.35;5.63;;;0.70;97.50;;;;;;5035181;28;20056;-73
2024/01/15 06:35:57;;;;;;;13.98;5.85;;;0.70;97.50;;;;;;5025793;28;20036;-75
2024/01/15 06:38:33;;;;;;;15.00;5.50;;;0.70;97.30;;;;;;5042773;28;20044;-75
2024/01/15 06:41:08;;;;;;;12.40;5.32;;;0.80;97.20;;;;;;5007741;28;20025;-76
2024/01/15 06:43:37;;;;;;;13.57;5.85;;;0.80;97.30;;;;;;5025339;28;20030;-75
2024/01/15 06:46:05;;;;;;;16.15;6.15;;;0.80;97.40;;;;;;5042631;28;20021;-75
2024/01/15 06:48:31;;;;;;;12.65;5.50;;;0.70;97.50;;;;;;5043111;28;20037;-75
2024/01/15 06:51:00;;;;;;;12.00;6.00;;;0.70;97.60;;;;;;5025314;28;20063;-76
2024/01/15 06:53:34;;;;;;;14.10;6.68;;;0.70;97.60;;;;;;5043106;28;20068;-75
2024/01/15 06:56:00;;;;;;;13.70;6.10;;;0.70;97.60;;;;;;5042841;28;20036;-76
2024/01/15 06:58:34;;;;;;;12.90;6.00;;;0.70;97.60;;;;;;5025061;28;20045;-75
2024/01/15 07:01:05;;;;;;;14.50;6.20;;;0.70;97.60;;;;;;5023203;28;20049;-74
2024/01/15 07:03:34;;;;;;;13.07;5.85;;;0.70;97.60;;;;;;5023142;28;20033;-74
2024/01/15 07:06:00;;;;;;;15.80;6.45;;;0.70;97.60;;;;;;5026347;28;20247;-74
2024/01/15 07:08:26;;;;;;;12.63;6.18;;;0.70;97.50;;;;;;5007582;28;20026;-74
2024/01/15 07:10:57;;;;;;;16.83;5.85;;;0.70;97.50;;;;;;5034730;28;20097;-74
2024/01/15 07:13:32;;;;;;;13.65;5.57;;;0.80;97.30;;;;;;5031507;28;20033;-73
2024/01/15 07:15:58;;;;;;;12.57;5.32;;;0.80;97.10;;;;;;5039510;28;20029;-74
2024/01/15 07:18:27;;;;;;;13.52;5.55;;;0.80;96.90;;;;;;5041883;28;20102;-75
2024/01/15 07:21:02;;;;;;;13.57;5.38;;;0.90;96.80;;;;;;5042404;28;20032;-75
2024/01/15 07:23:42;;;;;;;12.88;6.03;;;0.80;96.90;;;;;;5007934;28;20049;-76
2024/01/15 07:26:13;;;;;;;12.75;5.45;;;0.80;97.00;;;;;;5025054;28;20274;-73
2024/01/15 07:28:42;;;;;;;12.70;5.50;;;0.80;96.70;;;;;;5024902;28;20032;-75
2024/01/15 07:31:29;;;;;;;14.80;5.75;;;0.90;96.70;;;;;;5005042;28;20044;-75
2024/01/15 07:33:54;;;;;;;15.05;5.35;;;1.00;96.50;;;;;;5040697;28;20025;-78
2024/01/15 07:36:20;;;;;;;13.65;5.60;;;0.90;96.40;;;;;;5041929;28;20033;-75
2024/01/15 07:38:46;;;;;;;12.80;6.43;;;1.00;96.30;;;;;;5017394;28;20048;-78
2024/01/15 07:41:15;;;;;;;12.95;5.32;;;1.00;96.30;;;;;;5004670;28;20115;-77
2024/01/15 07:43:41;;;;;;;13.07;5.68;;;1.00;96.40;;;;;;4995841;28;20313;-76
2024/01/15 07:46:09;;;;;;;9.65;4.95;;;1.00;96.30;;;;;;5020687;28;20021;-77
2024/01/15 07:48:35;;;;;;;15.23;5.95;;;1.00;96.30;;;;;;5004444;28;20247;-74
2024/01/15 07:51:01;;;;;;;14.27;6.50;;;1.00;96.30;;;;;;5022089;28;20076;-75
2024/01/15 07:53:27;;;;;;;14.25;5.70;;;1.00;96.10;;;;;;5004639;28;20057;-73
2024/01/15 07:55:56;;;;;;;13.50;5.63;;;1.00;95.90;;;;;;5022316;28;20273;-74
2024/01/15 07:58:25;;;;;;;14.95;5.85;;;1.10;95.90;;;;;;5021581;28;20037;-76
2024/01/15 08:00:52;;;;;;;13.85;5.43;;;1.00;95.80;;;;;;5023626;28;20013;-76
2024/01/15 08:03:17;;;;;;;13.75;5.75;;;1.10;95.80;;;;;;5024173;28;20186;-75
2024/01/15 08:05:43;;;;;;;12.85;5.70;;;1.10;95.60;;;;;;5042322;28;20040;-75
2024/01/15 08:08:11;;;;;;;15.80;5.82;;;1.20;95.20;;;;;;5041782;28;20067;-78
2024/01/15 08:10:40;;;;;;;13.77;5.05;;;1.20;95.30;;;;;;5024075;28;20037;-76
2024/01/15 08:13:07;;;;;;;13.20;5.03;;;1.20;95.00;;;;;;5041662;28;20247;-72
2024/01/15 08:15:33;;;;;;;13.10;5.40;;;1.20;94.80;;;;;;5020480;28;20097;-73
2024/01/15 08:17:59;;;;;;;11.30;5.13;;;1.20;94.80;;;;;;5024523;28;20025;-74
2024/01/15 08:20:25;;;;;;;11.50;4.75;;;1.20;94.90;;;;;;5021861;28;20109;-75
2024/01/15 08:22:51;;;;;;;11.88;5.10;;;1.30;94.90;;;;;;5025827;28;20017;-73
2024/01/15 08:25:16;;;;;;;13.98;5.78;;;1.30;94.50;;;;;;5041376;28;20033;-75
2024/01/15 08:27:45;;;;;;;11.63;5.55;;;1.30;94.60;;;;;;5041437;28;20151;-74
2024/01/15 08:30:14;;;;;;;12.63;4.97;;;1.30;94.50;;;;;;5023645;28;20021;-74
2024/01/15 08:32:42;;;;;;;14.50;5.20;;;1.40;94.50;;;;;;5041822;28;20021;-76
2024/01/15 08:35:09;;;;;;;10.27;4.72;;;1.40;94.40;;;;;;5041044;28;20332;-72
2024/01/15 08:37:35;;;;;;;10.75;4.60;;;1.40;94.20;;;;;;5028272;28;20075;-74
2024/01/15 08:40:00;;;;;;;13.38;5.60;;;1.50;93.90;;;;;;5020685;28;20061;-73
2024/01/15 08:42:29;;;;;;;15.10;5.22;;;1.50;93.90;;;;;;5021194;28;20049;-72
2024/01/15 08:44:57;;;;;;;11.90;5.13;;;1.50;93.80;;;;;;5033454;28;20036;-73
2024/01/15 08:47:26;;;;;;;10.43;5.32;;;1.50;93.90;;;;;;5041931;28;20033;-73
2024/01/15 08:49:55;;;;;;;15.00;4.75;;;1.70;93.90;;;;;;5034711;28;20439;-73
2024/01/15 08:52:20;;;;;;;10.10;4.72;;;1.70;93.50;;;;;;5032961;28;20030;-74
2024/01/15 08:54:49;;;;;;;14.77;5.70;;;1.70;93.50;;;;;;5025469;28;20335;-75
2024/01/15 08:57:15;;;;;;;11.13;4.80;;;1.80;93.60;;;;;;5042851;28;20029;-74
2024/01/15 08:59:41;;;;;;;13.70;6.18;;;1.70;93.60;;;;;;5044774;28;20223;-76
2024/01/15 09:02:07;;;;;;;9.35;4.25;;;1.80;93.30;;;;;;5043580;28;20208;-74
2024/01/15 09:04:33;;;;;;;10.70;4.50;;;1.90;92.90;;;;;;5045201;28;20025;-73
2024/01/15 09:07:02;;;;;;;11.02;4.68;;;1.90;92.60;;;;;;5043878;28;20041;-76
2024/01/15 09:09:27;;;;;;;11.45;4.20;;;2.00;92.60;;;;;;5025400;28;20044;-74
2024/01/15 09:11:59;;;;;;;8.57;3.72;;;2.00;92.60;;;;;;5038534;28;20327;-74
2024/01/15 09:14:29;;;;;;;11.10;4.15;;;2.00;92.30;;;;;;5025260;28;20037;-72
2024/01/15 09:16:54;;;;;;;9.30;3.92;;;2.00;92.10;;;;;;5024753;28;20045;-73
2024/01/15 09:19:23;;;;;;;7.55;3.30;;;2.10;92.10;;;;;;5039853;28;20055;-74
2024/01/15 09:21:51;;;;;;;11.15;3.85;;;2.10;92.00;;;;;;5044639;28;20032;-74
2024/01/15 09:24:17;;;;;;;9.48;4.25;;;1.90;92.30;;;;;;5026988;28;20344;-74
2024/01/15 09:26:42;;;;;;;8.95;3.67;;;1.90;92.60;;;;;;5024648;28;20167;-74
2024/01/15 09:29:10;;;;;;;9.63;3.90;;;2.00;92.30;;;;;;5023503;28;20193;-76
2024/01/15 09:31:38;;;;;;;8.32;3.78;;;2.10;92.20;;;;;;5024397;28;20331;-75
2024/01/15 09:34:04;;;;;;;11.20;3.60;;;2.10;91.80;;;;;;5024184;28;20030;-75
2024/01/15 09:36:29;;;;;;;10.40;3.63;;;2.10;91.80;;;;;;5024849;28;20017;-75
2024/01/15 09:38:58;;;;;;;8.05;3.40;;;2.20;91.80;;;;;;5028830;28;20038;-74
2024/01/15 09:41:25;;;;;;;10.98;3.45;;;2.20;91.70;;;;;;5023780;28;20044;-74
2024/01/15 09:43:52;;;;;;;10.75;3.08;;;2.20;91.70;;;;;;5029831;28;20300;-73
2024/01/15 09:46:23;;;;;;;8.50;3.05;;;2.30;91.40;;;;;;5043365;28;20041;-75
2024/01/15 09:48:55;;;;;;;8.07;3.30;;;2.40;91.40;;;;;;5044308;28;20096;-76
2024/01/15 09:51:21;;;;;;;8.60;3.28;;;2.40;91.50;;;;;;5038115;28;20045;-75
2024/01/15 09:53:48;;;;;;;7.72;3.13;;;2.50;91.30;;;;;;5025856;28;20038;-74
2024/01/15 09:56:14;;;;;;;9.75;3.30;;;2.50;91.20;;;;;;5028300;28;20017;-74
2024/01/15 09:58:42;;;;;;;6.25;2.78;;;2.40;91.40;;;;;;5043381;28;20060;-74
2024/01/15 10:01:08;;;;;;;8.23;3.20;;;2.40;91.30;;;;;;5043365;28;20059;-74
2024/01/15 10:03:34;;;;;;;7.57;3.00;;;2.40;91.70;;;;;;5043555;28;20029;-74
2024/01/15 10:06:04;;;;;;;9.23;3.45;;;2.40;91.50;;;;;;5043545;28;20025;-72
2024/01/15 10:08:37;;;;;;;8.18;3.63;;;2.40;91.50;;;;;;5043483;28;20077;-73
2024/01/15 10:11:04;;;;;;;9.50;3.15;;;2.40;91.50;;;;;;5043398;28;20024;-74
2024/01/15 10:13:30;;;;;;;9.70;3.50;;;2.40;91.50;;;;;;5043196;28;20033;-77
2024/01/15 10:15:56;;;;;;;7.05;3.03;;;2.40;91.60;;;;;;5043653;28;20431;-75
2024/01/15 10:18:21;;;;;;;9.40;3.90;;;2.40;91.60;;;;;;5037733;28;20342;-74
2024/01/15 10:20:47;;;;;;;7.95;3.45;;;2.50;91.40;;;;;;5043365;28;20037;-76
2024/01/15 10:23:14;;;;;;;7.72;3.38;;;2.50;91.30;;;;;;5017488;28;20319;-74
2024/01/15 10:25:42;;;;;;;7.30;3.10;;;2.50;91.40;;;;;;5011273;28;20022;-73
2024/01/15 10:28:09;;;;;;;8.48;3.70;;;2.50;91.50;;;;;;5023360;28;20198;-75
2024/01/15 10:30:38;;;;;;;8.43;3.88;;;2.70;91.40;;;;;;5023481;28;20077;-77
2024/01/15 10:33:04;;;;;;;7.75;3.17;;;2.70;91.30;;;;;;5019650;28;20178;-78
2024/01/15 10:35:34;;;;;;;8.45;3.30;;;2.70;91.30;;;;;;5040036;28;20037;-72
2024/01/15 10:38:01;;;;;;;8.90;3.28;;;2.70;91.20;;;;;;5007902;28;20029;-73
2024/01/15 10:40:27;;;;;;;7.93;2.72;;;2.70;91.00;;;;;;5022854;28;20164;-74
2024/01/15 10:42:53;;;;;;;7.78;3.28;;;2.70;91.10;;;;;;5024098;28;20052;-74
2024/01/15 10:45:19;;;;;;;7.25;3.25;;;2.70;91.20;;;;;;5015046;28;20022;-74
2024/01/15 10:47:45;;;;;;;8.27;3.30;;;2.70;91.20;;;;;;5023002;28;20037;-74
2024/01/15 10:50:12;;;;;;;7.57;2.90;;;2.70;91.20;;;;;;5020788;28;20087;-75
2024/01/15 10:52:43;;;;;;;7.25;2.90;;;2.80;91.20;;;;;;5021428;28;20026;-74
2024/01/15 10:55:09;;;;;;;6.88;3.10;;;2.80;91.10;;;;;;5022856;28;20328;-73
2024/01/15 10:57:38;;;;;;;9.63;2.72;;;2.80;91.20;;;;;;5029078;28;20200;-76
2024/01/15 11:00:05;;;;;;;6.22;2.80;;;3.00;91.10;;;;;;5042845;28;20041;-74
2024/01/15 11:02:39;;;;;;;6.07;2.65;;;2.90;91.00;;;;;;5014694;28;20037;-76
2024/01/15 11:05:31;;;;;;;7.50;2.92;;;2.90;91.00;;;;;;5005476;28;20053;-77
2024/01/15 11:07:59;;;;;;;6.38;2.85;;;3.00;90.90;;;;;;5016266;28;20037;-77
2024/01/15 11:10:55;;;;;;;6.80;2.60;;;3.20;91.00;;;;;;5022266;28;20084;-77
2024/01/15 11:13:52;;;;;;;5.65;2.65;;;3.30;90.70;;;;;;5042287;28;20212;-78
2024/01/15 11:16:17;;;;;;;5.68;2.97;;;3.00;91.30;;;;;;5035017;28;20049;-76
2024/01/15 11:19:02;;;;;;;6.97;3.08;;;2.90;92.00;;;;;;5022026;28;20309;-76
2024/01/15 11:21:41;;;;;;;6.45;3.25;;;2.90;92.40;;;;;;5004932;28;20041;-77
2024/01/15 11:24:11;;;;;;;9.98;3.30;;;2.90;92.80;;;;;;5019999;28;20021;-75
2024/01/15 11:26:41;;;;;;;7.68;3.55;;;2.80;93.60;;;;;;5024638;28;20033;-76
2024/01/15 11:29:41;;;;;;;8.68;3.30;;;2.60;94.40;;;;;;5026156;28;20274;-74
2024/01/15 11:32:35;;;;;;;9.07;3.83;;;2.50;95.30;;;;;;5022520;28;20026;-76
2024/01/15 11:35:18;;;;;;;8.68;3.90;;;2.60;95.00;;;;;;5004658;28;20049;-78
2024/01/15 11:37:59;;;;;;;13.85;3.70;;;2.70;94.50;;;;;;5022240;28;20316;-76
2024/01/15 11:40:33;;;;;;;7.85;3.83;;;2.70;94.50;;;;;;5022007;28;20033;-76
2024/01/15 11:42:59;;;;;;;10.23;5.00;;;2.80;94.40;;;;;;5022374;28;20022;-77
2024/01/15 11:45:26;;;;;;;9.27;3.67;;;2.80;94.90;;;;;;5023786;28;20030;-77
2024/01/15 11:48:19;;;;;;;9.60;4.13;;;2.80;94.30;;;;;;5021277;28;20014;-77
2024/01/15 11:50:46;;;;;;;9.32;4.90;;;2.60;94.80;;;;;;4988270;28;20076;-78
2024/01/15 11:53:43;;;;;;;9.57;4.77;;;2.50;95.30;;;;;;5022205;28;20026;-78
2024/01/15 11:56:18;;;;;;;10.35;4.35;;;2.30;96.60;;;;;;5021197;28;20448;-80
2024/01/15 11:58:44;;;;;;;9.85;4.28;;;2.20;96.80;;;;;;5010205;28;20068;-77
2024/01/15 12:01:11;;;;;;;10.10;4.38;;;2.20;96.70;;;;;;4969062;28;20042;-78
2024/01/15 12:03:39;;;;;;;10.30;4.40;;;2.20;96.70;;;;;;5004517;28;20045;-78
2024/01/15 12:06:07;;;;;;;11.32;4.30;;;2.10;97.10;;;;;;4985471;28;20089;-77
2024/01/15 12:08:33;;;;;;;9.18;4.03;;;2.10;97.50;;;;;;4982669;28;20056;-78
2024/01/15 12:10:59;;;;;;;8.27;4.18;;;2.10;97.10;;;;;;5008474;28;20316;-75
2024/01/15 12:13:28;;;;;;;9.52;4.05;;;2.20;97.30;;;;;;5013949;28;20095;-79
2024/01/15 12:15:54;;;;;;;8.82;3.75;;;2.30;96.90;;;;;;5016981;28;20053;-76
2024/01/15 12:18:21;;;;;;;10.93;4.32;;;2.30;96.50;;;;;;5003576;28;20048;-77
2024/01/15 12:20:46;;;;;;;8.95;3.67;;;2.30;96.80;;;;;;5014905;28;20204;-77
2024/01/15 12:23:13;;;;;;;7.45;3.47;;;2.30;97.40;;;;;;5016026;28;20049;-77
2024/01/15 12:25:39;;;;;;;9.55;4.68;;;2.10;98.20;;;;;;5006017;28;20102;-75
2024/01/15 12:28:06;;;;;;;11.15;4.03;;;2.00;99.00;;;;;;5006476;28;20022;-77
2024/01/15 12:30:33;;;;;;;8.48;3.85;;;1.90;99.80;;;;;;5018831;28;20032;-76
2024/01/15 12:33:06;;;;;;;10.90;4.33;;;1.80;99.90;;;;;;5024197;28;20057;-77
2024/01/15 12:35:35;;;;;;;9.15;4.18;;;1.70;99.90;;;;;;5022998;28;20811;-76
2024/01/15 12:38:04;;;;;;;10.75;4.55;;;1.70;99.90;;;;;;5008115;28;20257;-77
2024/01/15 12:40:31;;;;;;;10.05;4.50;;;1.60;99.90;;;;;;4988138;28;20064;-77
2024/01/15 12:43:03;;;;;;;13.15;4.57;;;1.60;99.90;;;;;;4989451;28;20025;-78
2024/01/15 12:45:30;;;;;;;13.20;5.28;;;1.50;99.90;;;;;;5005445;28;20088;-77
2024/01/15 12:47:55;;;;;;;10.75;4.50;;;1.40;99.90;;;;;;5004082;28;20058;-76
2024/01/15 12:50:25;;;;;;;9.98;4.85;;;1.40;99.90;;;;;;5025057;28;20057;-77
2024/01/15 12:52:51;;;;;;;9.10;4.68;;;1.30;99.90;;;;;;5025236;28;20061;-76